Stations météo

réclame
Mon MeteoGroup
Southampton oceanography centre, Grande-Bretagne (99079): Température de l'air & dewpoint: 21.09.2020 10:00:00 - 27.09.2020 10:00:00 (BST)Southampton oceanography centre, Grande-Bretagne (99079): Vitesse du vent & gusts: 21.09.2020 10:00:00 - 27.09.2020 10:00:00 (BST)Southampton oceanography centre, Grande-Bretagne (99079): Direction du vent: 21.09.2020 10:00:00 - 27.09.2020 10:00:00 (BST)Southampton oceanography centre, Grande-Bretagne (99079): Quantités de précipitations: 21.09.2020 10:00:00 - 27.09.2020 10:00:00 (BST)
Date & Time tt [°C] td [°C] ff [km/h] ff [knt] fx [km/h] fx [knt] dd rr [mm]
27.09.2020 10:00:00 - - - - - - - -
27.09.2020 09:00:00 10,1 4,1 18 10 - - N 0,0
27.09.2020 08:00:00 9,4 3,9 16 9 - - NNW 0,0
27.09.2020 07:00:00 9,4 4,1 21 11 - - NNW 0,0
27.09.2020 06:00:00 9,6 4,2 15 8 - - NW -
27.09.2020 05:00:00 10,7 4,1 22 12 - - NNW 0,0
27.09.2020 04:00:00 10,8 3,9 21 11 46 25 NNW 0,0
27.09.2020 03:00:00 11,1 4,1 16 9 50 27 NNW 0,0
27.09.2020 02:00:00 11,4 4,1 16 9 - - NNW 0,0
27.09.2020 01:00:00 11,1 5,0 21 11 - - NNW 0,0
27.09.2020 00:00:00 10,9 5,0 18 10 - - NNW 0,0
26.09.2020 23:00:00 10,7 5,0 18 10 - - NNW 0,0
26.09.2020 22:00:00 11,3 5,0 15 8 - - NNW -
26.09.2020 21:00:00 11,7 5,1 21 11 - - NNW 0,0
26.09.2020 20:00:00 11,8 4,8 11 6 - - NNW 0,0
26.09.2020 19:00:00 12,4 4,3 16 9 - - NNW 0,0
26.09.2020 18:00:00 13,0 3,6 22 12 52 28 NNW 0,0
26.09.2020 17:00:00 13,9 3,0 21 11 50 27 NNW 0,0
26.09.2020 16:00:00 14,0 2,6 24 13 52 28 N 0,0
26.09.2020 15:00:00 13,8 2,5 22 12 - - NNW 0,0
26.09.2020 14:00:00 13,3 2,4 21 11 - - NNW 0,0
26.09.2020 13:00:00 12,5 1,6 26 14 46 25 NNW 0,0
26.09.2020 12:00:00 11,8 1,8 22 12 - - NNW 0,0
26.09.2020 11:00:00 10,6 2,0 24 13 46 25 NNW 0,0
26.09.2020 10:00:00 9,3 2,7 24 13 46 25 NNW 0,0
26.09.2020 09:00:00 8,6 3,4 16 9 - - NW 0,0
26.09.2020 08:00:00 7,1 3,9 16 9 - - WNW 0,0
26.09.2020 07:00:00 6,9 3,7 13 7 - - WNW 0,0
26.09.2020 06:00:00 7,5 3,9 16 9 - - WNW 0,0
26.09.2020 05:00:00 8,0 4,2 15 8 - - WNW 0,0
26.09.2020 04:00:00 8,6 4,2 15 8 - - NW 0,0
26.09.2020 03:00:00 8,7 4,5 16 9 - - WNW 0,0
26.09.2020 02:00:00 9,3 4,7 13 7 - - NW 0,0
26.09.2020 01:00:00 9,7 4,8 16 9 - - NW 0,0
26.09.2020 00:00:00 10,1 4,8 18 10 - - NW 0,0
25.09.2020 23:00:00 10,7 4,7 21 11 - - NW 0,0
25.09.2020 22:00:00 11,4 4,9 21 11 - - WNW 0,0
25.09.2020 21:00:00 12,4 4,9 18 10 - - NW -
25.09.2020 20:00:00 13,0 3,4 15 8 46 25 NW 0,0
25.09.2020 19:00:00 14,1 3,0 22 12 - - NW 0,0
25.09.2020 18:00:00 15,1 3,2 29 16 59 32 NW -
25.09.2020 17:00:00 15,3 2,9 35 19 70 38 NW 0,0
25.09.2020 16:00:00 15,5 2,2 35 19 63 34 NNW 0,0
25.09.2020 15:00:00 15,2 1,7 28 15 67 36 NW 0,0
25.09.2020 14:00:00 14,6 2,3 31 17 63 34 NW 0,0
25.09.2020 13:00:00 13,5 3,0 28 15 57 31 NW 0,0
25.09.2020 12:00:00 12,4 3,8 31 17 63 34 NW 0,0
25.09.2020 11:00:00 11,9 5,0 21 11 54 29 NW 0,0
25.09.2020 10:00:00 9,7 4,7 26 14 50 27 NW 0,0
25.09.2020 09:00:00 8,6 5,6 24 13 - - NW 0,0
25.09.2020 08:00:00 7,9 5,8 21 11 - - NW -
25.09.2020 07:00:00 7,3 5,4 18 10 - - NW 0,0
25.09.2020 06:00:00 7,3 5,6 16 9 - - WNW 0,0
25.09.2020 05:00:00 7,2 5,6 16 9 - - WNW 0,0
25.09.2020 04:00:00 7,0 5,5 11 6 - - NW 0,0
25.09.2020 03:00:00 7,7 5,8 11 6 - - NNW 0,0
25.09.2020 02:00:00 8,8 6,4 9 5 - - NNW 0,0
25.09.2020 01:00:00 9,2 7,1 11 6 - - N 0,0
25.09.2020 00:00:00 9,4 7,4 8 4 - - NE 0,0
24.09.2020 23:00:00 9,7 7,4 9 5 - - NE 0,0
24.09.2020 22:00:00 10,4 7,3 13 7 - - WSW -
24.09.2020 21:00:00 10,9 6,8 4 2 - - N 0,0
24.09.2020 20:00:00 11,8 6,9 9 5 - - SSW -
24.09.2020 19:00:00 12,0 6,5 9 5 - - SW 0,0
24.09.2020 18:00:00 12,2 6,1 18 10 - - SW 0,0
24.09.2020 17:00:00 12,9 5,4 18 10 - - WSW 0,0
24.09.2020 16:00:00 13,1 7,4 22 12 - - SW 0,0
24.09.2020 15:00:00 12,4 9,0 9 5 - - S 0,0
24.09.2020 14:00:00 11,3 8,9 9 5 - - SSW 0,0
24.09.2020 13:00:00 10,5 8,5 18 10 65 35 WSW 0,0
24.09.2020 12:00:00 14,3 7,3 18 10 46 25 SW 0,0
24.09.2020 11:00:00 14,5 8,3 28 15 - - WSW 0,0
24.09.2020 10:00:00 12,5 9,1 21 11 - - SW 0,0
24.09.2020 09:00:00 11,4 9,1 21 11 - - SW 0,0
24.09.2020 08:00:00 11,5 10,1 15 8 - - SW 0,0
24.09.2020 07:00:00 10,8 8,6 21 11 67 36 SW 0,0
24.09.2020 06:00:00 12,2 10,4 24 13 46 25 SW 0,0
24.09.2020 05:00:00 11,8 10,8 18 10 - - SSW -
24.09.2020 04:00:00 12,8 7,7 16 9 - - SSW 0,0
24.09.2020 03:00:00 11,1 8,0 8 4 - - SSW -
24.09.2020 02:00:00 9,8 7,7 11 6 - - SW 0,0
24.09.2020 01:00:00 9,7 7,5 15 8 - - WSW 0,0
24.09.2020 00:00:00 9,7 7,6 13 7 - - WSW 0,0
23.09.2020 23:00:00 10,6 7,7 15 8 - - W 0,0
23.09.2020 22:00:00 11,6 8,1 22 12 - - W 0,0
23.09.2020 21:00:00 12,5 9,4 24 13 - - W 0,0
23.09.2020 20:00:00 13,0 10,9 18 10 - - W 0,0
23.09.2020 19:00:00 13,6 11,1 24 13 - - W 0,0
23.09.2020 18:00:00 14,9 12,3 18 10 - - WSW 0,0
23.09.2020 17:00:00 15,1 13,0 15 8 - - NW 0,0
23.09.2020 16:00:00 16,0 14,6 16 9 - - SSW 0,0
23.09.2020 15:00:00 16,1 14,6 21 11 - - S 0,0
23.09.2020 14:00:00 16,8 13,8 21 11 - - SSW 0,0
23.09.2020 13:00:00 17,3 14,3 22 12 - - SW 0,0
23.09.2020 12:00:00 16,4 14,7 16 9 48 26 SSW 0,0
23.09.2020 11:00:00 16,4 14,4 22 12 - - SSW 0,0
23.09.2020 10:00:00 17,4 14,6 15 8 - - SSW 0,0
23.09.2020 09:00:00 16,4 14,6 11 6 - - SW 0,0
23.09.2020 08:00:00 15,8 14,7 15 8 - - SW 0,0
23.09.2020 07:00:00 15,7 14,7 15 8 - - SW 0,0
23.09.2020 06:00:00 15,4 14,6 9 5 - - SW 0,0
23.09.2020 05:00:00 15,8 15,0 9 5 - - WSW 0,0
23.09.2020 04:00:00 16,3 15,3 16 9 - - W -
23.09.2020 03:00:00 16,7 15,9 21 11 - - S 0,0
23.09.2020 02:00:00 16,9 15,6 16 9 - - S 0,0
23.09.2020 01:00:00 16,7 15,0 13 7 - - S 0,0
23.09.2020 00:00:00 16,5 14,6 11 6 - - S 0,0
22.09.2020 23:00:00 16,0 14,5 5 3 - - S 0,0
22.09.2020 22:00:00 15,8 14,2 5 3 - - SW 0,0
22.09.2020 21:00:00 16,4 14,3 5 3 - - SW 0,0
22.09.2020 20:00:00 17,0 14,8 16 9 - - SW 0,0
22.09.2020 19:00:00 17,4 14,9 18 10 - - SW 0,0
22.09.2020 18:00:00 17,4 15,3 22 12 - - SW -
22.09.2020 17:00:00 18,0 15,1 24 13 - - SW 0,0
22.09.2020 16:00:00 18,5 15,3 24 13 - - SW -
22.09.2020 15:00:00 19,3 15,1 24 13 - - SSW 0,0
22.09.2020 14:00:00 21,2 15,3 24 13 - - SSW 0,0
22.09.2020 13:00:00 20,9 15,7 18 10 - - SSW 0,0
22.09.2020 12:00:00 20,1 15,7 15 8 - - SSW 0,0
22.09.2020 11:00:00 20,0 15,3 15 8 - - SW 0,0
22.09.2020 10:00:00 16,8 14,9 2 1 - - W 0,0
22.09.2020 09:00:00 15,8 14,7 8 4 - - S 0,0
22.09.2020 08:00:00 14,2 13,1 4 2 - - SW 0,0
22.09.2020 07:00:00 13,2 11,9 2 1 - - WSW 0,0
22.09.2020 06:00:00 13,6 12,4 2 1 - - W 0,0
22.09.2020 05:00:00 13,9 12,3 2 1 - - NW 0,0
22.09.2020 04:00:00 14,3 12,8 4 2 - - NW 0,0
22.09.2020 03:00:00 14,3 12,9 2 1 - - W 0,0
22.09.2020 02:00:00 15,2 13,6 2 1 - - WSW 0,0
22.09.2020 01:00:00 15,5 13,1 0 0 - - N 0,0
22.09.2020 00:00:00 15,8 13,2 4 2 - - SW 0,0
21.09.2020 23:00:00 16,3 13,1 2 1 - - WSW 0,0
21.09.2020 22:00:00 16,9 13,1 4 2 - - W 0,0
21.09.2020 21:00:00 17,6 13,3 5 3 - - WSW 0,0
21.09.2020 20:00:00 18,3 13,2 8 4 - - WSW 0,0
21.09.2020 19:00:00 20,0 13,9 8 4 - - WSW 0,0
21.09.2020 18:00:00 21,7 13,7 16 9 - - SW 0,0
21.09.2020 17:00:00 23,9 13,4 15 8 - - SSW 0,0
21.09.2020 16:00:00 21,9 13,2 15 8 - - SE 0,0
21.09.2020 15:00:00 22,9 14,1 9 5 - - SSE 0,0
21.09.2020 14:00:00 26,2 11,3 11 6 - - SSW 0,0
21.09.2020 13:00:00 22,3 11,0 5 3 - - NNE 0,0
21.09.2020 12:00:00 20,2 12,0 5 3 - - NNE -
21.09.2020 11:00:00 18,4 12,2 8 4 - - NE 0,0
21.09.2020 10:00:00 15,8 12,5 8 4 - - NE 0,0

tt = Température de l'air
td = dewpoint
ff = Vitesse du vent
fx = gusts
dd = Direction du vent
rr = Quantités de précipitations

stations d'obs. à proximité